Springdale, Pennsylvania
Current Conditions -  °F | °C
As of 1:53 AM on Saturday 01 Nov 2014 (Local Time) from KAGC Reporting Station
Light Rain Light Rain  
Wind Chill: 38°   Ceiling: 800
Heat Index: 41°   Visibility: 2mi
Dew Point: 38°   Wind: 5mph
Humidity: 89%   Direction: 10°N
Pressure: 29.86"   Gusts: NA
Location:  40.54°N, 79.78°W
Report Text: KAGC 010553Z 01004KT 2SM -RA BR BKN008 BKN012 OVC022 05/03 A2986 RMK AO2 VIS 1 1/2V3 CIG 004V010 SLP122 P0002 60014 T00500033 10056 20050 58003
Loading
Personal Weather Stations






























Interactive Weather Map
Tropical Storm Tracking
New forecast layout! Learn more

10-Day Weather Forecast

Advertisements
Track Severe Weather on mobile